createdAt,value
2022-08-27T00:01:48.998Z,97.80
2022-08-27T00:04:16.351Z,97.80
2022-08-27T00:06:43.643Z,97.80
2022-08-27T00:09:13.731Z,97.80
2022-08-27T00:11:41.127Z,97.80
2022-08-27T00:14:08.983Z,97.80
2022-08-27T00:16:36.462Z,97.80
2022-08-27T00:19:04.292Z,97.80
2022-08-27T00:21:33.080Z,97.80
2022-08-27T00:24:01.236Z,97.80
2022-08-27T00:26:29.159Z,97.80
2022-08-27T00:28:56.791Z,97.80
2022-08-27T00:31:27.167Z,97.70
2022-08-27T00:33:55.776Z,97.80
2022-08-27T00:36:23.863Z,97.70
2022-08-27T00:38:52.086Z,97.70
2022-08-27T00:41:22.387Z,97.80
2022-08-27T00:43:56.875Z,97.80
2022-08-27T00:46:42.348Z,97.80
2022-08-27T00:49:20.655Z,97.80
2022-08-27T00:52:09.240Z,97.80
2022-08-27T00:54:36.287Z,97.80
2022-08-27T00:57:04.784Z,97.70
2022-08-27T00:59:33.007Z,97.70
2022-08-27T01:02:19.443Z,97.70
2022-08-27T01:04:59.410Z,97.70
2022-08-27T01:07:30.014Z,97.80
2022-08-27T01:10:00.550Z,97.70
2022-08-27T01:12:31.220Z,97.70
2022-08-27T01:14:58.468Z,97.80
2022-08-27T01:17:25.947Z,97.80
2022-08-27T01:19:58.713Z,97.90
2022-08-27T01:22:39.566Z,98.00
2022-08-27T01:25:11.266Z,98.00
2022-08-27T01:27:39.560Z,98.10
2022-08-27T01:30:10.475Z,98.10
2022-08-27T01:32:38.752Z,98.10
2022-08-27T01:35:09.107Z,98.10
2022-08-27T01:37:37.977Z,98.10
2022-08-27T01:40:08.236Z,98.10
2022-08-27T01:42:40.060Z,98.10
2022-08-27T01:45:19.822Z,98.10
2022-08-27T01:47:48.296Z,98.10
2022-08-27T01:50:23.099Z,98.20
2022-08-27T01:52:51.785Z,98.20
2022-08-27T01:55:25.465Z,98.10
2022-08-27T01:57:55.326Z,98.10
2022-08-27T02:00:30.304Z,98.00
2022-08-27T02:02:58.853Z,98.00
2022-08-27T02:05:28.937Z,98.00
2022-08-27T02:07:57.044Z,98.00
2022-08-27T02:10:31.231Z,97.90
2022-08-27T02:12:58.496Z,97.90
2022-08-27T02:15:28.670Z,97.90
2022-08-27T02:17:56.317Z,98.00
2022-08-27T02:20:23.751Z,97.90
2022-08-27T02:22:55.677Z,97.90
2022-08-27T02:25:23.127Z,97.90
2022-08-27T02:27:51.428Z,97.80
2022-08-27T02:30:24.099Z,97.80
2022-08-27T02:32:53.139Z,97.80
2022-08-27T02:35:23.497Z,98.00
2022-08-27T02:37:51.478Z,97.70
2022-08-27T02:40:21.999Z,97.70
2022-08-27T02:42:49.872Z,97.60
2022-08-27T02:45:18.368Z,97.60
2022-08-27T02:47:45.380Z,97.60
2022-08-27T02:50:13.713Z,97.50
2022-08-27T02:52:41.739Z,97.40
2022-08-27T02:55:09.222Z,97.40
2022-08-27T02:57:37.544Z,97.30
2022-08-27T03:00:08.875Z,97.30
2022-08-27T03:02:37.072Z,97.30
2022-08-27T03:05:06.617Z,97.20
2022-08-27T03:07:33.858Z,97.20
2022-08-27T03:10:00.909Z,97.10
2022-08-27T03:12:27.884Z,97.10
2022-08-27T03:14:55.072Z,97.00
2022-08-27T03:17:40.714Z,97.00
2022-08-27T03:20:11.088Z,96.90
2022-08-27T03:22:40.140Z,96.90
2022-08-27T03:25:08.571Z,97.00
2022-08-27T03:27:35.708Z,97.10
2022-08-27T03:30:11.090Z,97.20
2022-08-27T03:32:39.145Z,97.20
2022-08-27T03:35:06.815Z,97.30
2022-08-27T03:37:34.482Z,97.30
2022-08-27T03:40:01.850Z,97.30
2022-08-27T03:42:29.180Z,97.30
2022-08-27T03:44:56.251Z,97.20
2022-08-27T03:47:24.133Z,97.20
2022-08-27T03:49:51.339Z,97.20
2022-08-27T03:52:19.217Z,97.10
2022-08-27T03:54:46.667Z,97.20
2022-08-27T03:57:13.652Z,97.10
2022-08-27T03:59:40.592Z,97.10
2022-08-27T04:02:08.787Z,97.10
2022-08-27T04:04:35.908Z,97.10
2022-08-27T04:07:03.243Z,97.10
2022-08-27T04:09:30.403Z,97.20
2022-08-27T04:11:57.420Z,97.10
2022-08-27T04:14:27.393Z,97.00
2022-08-27T04:16:56.709Z,97.10
2022-08-27T04:19:27.987Z,97.00
2022-08-27T04:22:04.485Z,97.00
2022-08-27T04:24:34.393Z,97.00
2022-08-27T04:27:02.668Z,97.00
2022-08-27T04:29:29.965Z,96.90
2022-08-27T04:31:57.740Z,96.90
2022-08-27T04:34:25.441Z,96.80
2022-08-27T04:36:56.775Z,96.70
2022-08-27T04:39:26.507Z,96.50
2022-08-27T04:41:56.660Z,96.50
2022-08-27T04:44:26.011Z,96.40
2022-08-27T04:47:03.616Z,96.30
2022-08-27T04:49:31.319Z,96.10
2022-08-27T04:52:01.800Z,96.10
2022-08-27T04:54:32.319Z,96.10
2022-08-27T04:57:04.884Z,96.20
2022-08-27T04:59:33.040Z,96.20
2022-08-27T05:02:04.601Z,96.10
2022-08-27T05:04:35.390Z,96.10
2022-08-27T05:07:02.294Z,96.10
2022-08-27T05:09:29.578Z,96.00
2022-08-27T05:11:56.735Z,96.00
2022-08-27T05:14:25.341Z,96.20
2022-08-27T05:16:52.370Z,95.80
2022-08-27T05:19:19.310Z,95.80
2022-08-27T05:21:49.404Z,95.80
2022-08-27T05:24:18.436Z,95.90
2022-08-27T05:26:47.102Z,95.90
2022-08-27T05:29:14.663Z,95.90
2022-08-27T05:31:43.328Z,95.90
2022-08-27T05:34:15.401Z,95.80
2022-08-27T05:36:49.428Z,95.80
2022-08-27T05:39:17.270Z,95.70
2022-08-27T05:41:44.276Z,95.70
2022-08-27T05:44:39.490Z,95.70
2022-08-27T05:46:58.874Z,95.60
2022-08-27T05:49:25.984Z,95.50
2022-08-27T05:51:52.990Z,95.50
2022-08-27T05:54:20.191Z,95.40
2022-08-27T05:56:49.771Z,95.40
2022-08-27T05:59:36.859Z,95.30
2022-08-27T06:02:05.983Z,95.30
2022-08-27T06:04:32.998Z,95.40
2022-08-27T06:07:00.376Z,95.30
2022-08-27T06:09:29.329Z,95.30
2022-08-27T06:11:58.291Z,95.30
2022-08-27T06:14:26.544Z,95.20
2022-08-27T06:16:53.770Z,95.30
2022-08-27T06:19:21.237Z,95.30
2022-08-27T06:22:00.123Z,95.10
2022-08-27T06:24:29.435Z,95.00
2022-08-27T06:26:57.434Z,94.90
2022-08-27T06:29:25.102Z,94.80
2022-08-27T06:31:53.056Z,94.70
2022-08-27T06:34:20.091Z,94.60
2022-08-27T06:36:47.135Z,94.50
2022-08-27T06:39:15.553Z,94.50
2022-08-27T06:42:13.602Z,94.50
2022-08-27T06:44:41.467Z,94.20
2022-08-27T06:47:08.502Z,94.30
2022-08-27T06:49:35.504Z,94.20
2022-08-27T06:52:02.615Z,94.10
2022-08-27T06:54:29.606Z,93.90
2022-08-27T06:57:00.378Z,93.90
2022-08-27T06:59:27.766Z,93.60
2022-08-27T07:01:54.758Z,93.60
2022-08-27T07:04:32.734Z,93.30
2022-08-27T07:07:02.328Z,93.10
2022-08-27T07:09:32.071Z,93.00
2022-08-27T07:12:00.137Z,92.90
2022-08-27T07:14:27.743Z,92.70
2022-08-27T07:16:55.425Z,92.60
2022-08-27T07:19:28.560Z,92.50
2022-08-27T07:21:56.308Z,92.30
2022-08-27T07:24:24.547Z,92.50
2022-08-27T07:26:51.420Z,92.10
2022-08-27T07:29:19.125Z,91.90
2022-08-27T07:31:46.087Z,91.90
2022-08-27T07:34:13.101Z,91.90
2022-08-27T07:36:41.205Z,91.70
2022-08-27T07:39:09.188Z,91.70
2022-08-27T07:41:57.014Z,91.60
2022-08-27T07:44:26.181Z,91.50
2022-08-27T07:46:58.882Z,91.80
2022-08-27T07:49:28.586Z,91.30
2022-08-27T07:51:55.959Z,91.20
2022-08-27T07:54:23.695Z,91.20
2022-08-27T07:56:55.299Z,90.90
2022-08-27T07:59:25.114Z,90.80
2022-08-27T08:01:56.514Z,90.70
2022-08-27T08:04:24.414Z,90.50
2022-08-27T08:06:52.136Z,90.40
2022-08-27T08:09:22.450Z,90.40
2022-08-27T08:11:51.471Z,90.00
2022-08-27T08:14:19.340Z,89.80
2022-08-27T08:16:46.542Z,89.90
2022-08-27T08:19:14.053Z,89.60
2022-08-27T08:21:41.516Z,89.50
2022-08-27T08:24:09.140Z,88.80
2022-08-27T08:26:36.063Z,88.20
2022-08-27T08:29:05.329Z,88.10
2022-08-27T08:31:32.789Z,87.70
2022-08-27T08:34:00.229Z,87.20
2022-08-27T08:36:27.488Z,87.20
2022-08-27T08:38:55.467Z,86.90
2022-08-27T08:41:31.071Z,86.30
2022-08-27T08:44:05.315Z,85.80
2022-08-27T08:46:58.754Z,86.10
2022-08-27T08:49:30.855Z,85.10
2022-08-27T08:52:09.892Z,85.30
2022-08-27T08:54:38.663Z,85.20
2022-08-27T08:57:28.642Z,85.10
2022-08-27T09:00:14.012Z,84.20
2022-08-27T09:02:50.366Z,83.90
2022-08-27T09:05:17.646Z,84.10
2022-08-27T09:08:32.936Z,84.40
2022-08-27T09:11:29.170Z,84.10
2022-08-27T09:14:10.342Z,84.10
2022-08-27T09:16:40.278Z,84.30
2022-08-27T09:19:07.436Z,84.30
2022-08-27T09:21:52.364Z,83.70
2022-08-27T09:24:53.161Z,83.10
2022-08-27T09:27:23.120Z,82.30
2022-08-27T09:29:53.999Z,82.20
2022-08-27T09:32:33.292Z,81.60
2022-08-27T09:35:05.191Z,80.30
2022-08-27T09:37:41.213Z,80.40
2022-08-27T09:40:22.719Z,79.80
2022-08-27T09:42:56.660Z,79.10
2022-08-27T09:45:29.971Z,78.80
2022-08-27T09:48:13.833Z,77.80
2022-08-27T09:50:55.070Z,77.00
2022-08-27T09:53:31.245Z,76.50
2022-08-27T09:56:04.474Z,76.90
2022-08-27T09:59:08.003Z,77.10
2022-08-27T10:02:16.623Z,76.20
2022-08-27T10:05:01.002Z,76.60
2022-08-27T10:07:53.905Z,76.40
2022-08-27T10:10:40.734Z,75.50
2022-08-27T10:13:27.921Z,75.70
2022-08-27T10:16:34.894Z,75.20
2022-08-27T10:19:40.391Z,74.70
2022-08-27T10:22:32.966Z,74.30
2022-08-27T10:25:47.158Z,74.00
2022-08-27T10:28:50.754Z,74.00
2022-08-27T10:31:43.957Z,74.30
2022-08-27T10:34:43.579Z,74.00
2022-08-27T10:38:01.925Z,74.50
2022-08-27T10:40:34.910Z,73.30
2022-08-27T10:43:23.551Z,74.20
2022-08-27T10:46:06.101Z,74.60
2022-08-27T10:48:45.852Z,73.40
2022-08-27T10:51:22.169Z,73.30
2022-08-27T10:54:22.434Z,74.30
2022-08-27T10:57:53.863Z,72.10
2022-08-27T11:00:23.644Z,72.00
2022-08-27T11:03:13.792Z,72.00
2022-08-27T11:05:50.401Z,71.50
2022-08-27T11:08:37.496Z,71.30
2022-08-27T11:12:10.298Z,71.20
2022-08-27T11:14:30.529Z,71.40
2022-08-27T11:17:06.858Z,71.80
2022-08-27T11:19:39.308Z,71.70
2022-08-27T11:22:26.662Z,72.30
2022-08-27T11:25:40.093Z,71.30
2022-08-27T11:28:09.214Z,70.30
2022-08-27T11:30:56.454Z,71.00
2022-08-27T11:33:32.145Z,69.00
2022-08-27T11:36:32.960Z,69.70
2022-08-27T11:39:28.284Z,68.60
2022-08-27T11:42:28.607Z,67.20
2022-08-27T11:45:08.267Z,66.90
2022-08-27T11:47:35.563Z,66.60
2022-08-27T11:50:17.319Z,66.40
2022-08-27T11:53:05.796Z,65.60
2022-08-27T11:55:39.472Z,64.70
2022-08-27T11:58:18.538Z,65.10
2022-08-27T12:00:48.505Z,63.60
2022-08-27T12:03:19.765Z,63.90
2022-08-27T12:05:49.863Z,62.80
2022-08-27T12:08:22.763Z,62.20
2022-08-27T12:11:25.442Z,61.90
2022-08-27T12:14:04.402Z,59.70
2022-08-27T12:16:46.987Z,59.80
2022-08-27T12:19:49.225Z,59.00
2022-08-27T12:23:05.856Z,58.10
2022-08-27T12:25:32.937Z,57.30
2022-08-27T12:28:09.523Z,57.70
2022-08-27T12:30:49.288Z,56.80
2022-08-27T12:33:44.312Z,57.00
2022-08-27T12:36:28.033Z,56.80
2022-08-27T12:38:59.197Z,57.10
2022-08-27T12:41:44.111Z,57.60
2022-08-27T12:44:27.274Z,57.70
2022-08-27T12:47:12.107Z,57.70
2022-08-27T12:50:00.121Z,57.90
2022-08-27T12:52:50.631Z,57.90
2022-08-27T12:55:33.931Z,57.80
2022-08-27T12:58:20.319Z,58.40
2022-08-27T13:01:36.269Z,58.50
2022-08-27T13:04:22.079Z,58.50
2022-08-27T13:06:49.767Z,59.00
2022-08-27T13:09:28.987Z,59.10
2022-08-27T13:11:57.134Z,58.90
2022-08-27T13:14:26.988Z,58.50
2022-08-27T13:17:03.727Z,58.30
2022-08-27T13:19:33.229Z,57.50
2022-08-27T13:22:05.240Z,57.20
2022-08-27T13:24:46.724Z,57.10
2022-08-27T13:27:15.086Z,56.60
2022-08-27T13:29:43.436Z,56.30
2022-08-27T13:32:14.488Z,55.80
2022-08-27T13:34:41.960Z,55.50
2022-08-27T13:37:31.831Z,55.60
2022-08-27T13:39:59.187Z,55.60
2022-08-27T13:42:27.464Z,55.80
2022-08-27T13:45:01.589Z,55.90
2022-08-27T13:47:30.823Z,56.70
2022-08-27T13:50:21.321Z,56.60
2022-08-27T13:53:12.997Z,56.40
2022-08-27T13:55:46.263Z,57.00
2022-08-27T13:58:28.011Z,56.90
2022-08-27T14:01:06.478Z,56.90
2022-08-27T14:03:39.300Z,57.50
2022-08-27T14:06:07.180Z,57.40
2022-08-27T14:08:38.823Z,57.40
2022-08-27T14:11:10.666Z,57.20
2022-08-27T14:13:45.918Z,57.10
2022-08-27T14:16:34.366Z,57.30
2022-08-27T14:19:25.742Z,56.60
2022-08-27T14:21:52.765Z,56.30
2022-08-27T14:24:19.860Z,56.00
2022-08-27T14:26:55.388Z,55.70
2022-08-27T14:29:22.464Z,54.90
2022-08-27T14:31:49.439Z,55.20
2022-08-27T14:34:16.767Z,55.00
2022-08-27T14:36:44.576Z,55.10
2022-08-27T14:39:12.134Z,55.00
2022-08-27T14:41:39.433Z,55.10
2022-08-27T14:44:07.172Z,55.20
2022-08-27T14:46:41.375Z,55.40
2022-08-27T14:49:25.078Z,55.40
2022-08-27T14:51:52.495Z,55.70
2022-08-27T14:54:19.482Z,55.80
2022-08-27T14:56:46.447Z,56.00
2022-08-27T14:59:13.864Z,56.20
2022-08-27T15:01:40.924Z,56.50
2022-08-27T15:04:08.244Z,56.80
2022-08-27T15:06:35.457Z,57.00
2022-08-27T15:09:02.427Z,57.00
2022-08-27T15:11:32.673Z,57.20
2022-08-27T15:14:01.913Z,57.20
2022-08-27T15:16:32.404Z,57.50
2022-08-27T15:19:01.482Z,57.90
2022-08-27T15:21:30.654Z,58.10
2022-08-27T15:24:05.460Z,58.20
2022-08-27T15:26:34.925Z,58.60
2022-08-27T15:29:06.420Z,58.70
2022-08-27T15:31:34.883Z,58.90
2022-08-27T15:34:01.917Z,59.00
2022-08-27T15:36:28.918Z,59.10
2022-08-27T15:38:56.337Z,59.10
2022-08-27T15:41:27.215Z,59.20
2022-08-27T15:43:56.454Z,59.20
2022-08-27T15:46:25.518Z,59.40
2022-08-27T15:48:53.346Z,59.50
2022-08-27T15:51:32.628Z,59.60
2022-08-27T15:54:00.782Z,59.70
2022-08-27T15:56:32.529Z,59.80
2022-08-27T15:59:01.729Z,60.10
2022-08-27T16:01:32.310Z,60.30
2022-08-27T16:04:00.497Z,60.50
2022-08-27T16:06:27.696Z,60.70
2022-08-27T16:08:54.801Z,61.10
2022-08-27T16:11:22.800Z,61.30
2022-08-27T16:13:51.178Z,61.70
2022-08-27T16:16:26.283Z,61.90
2022-08-27T16:18:53.564Z,62.10
2022-08-27T16:21:20.534Z,62.20
2022-08-27T16:23:47.960Z,62.40
2022-08-27T16:26:16.651Z,62.50
2022-08-27T16:28:44.624Z,62.70
2022-08-27T16:31:13.743Z,63.00
2022-08-27T16:33:42.711Z,63.00
2022-08-27T16:36:10.477Z,63.20
2022-08-27T16:38:38.059Z,63.30
2022-08-27T16:41:05.898Z,63.30
2022-08-27T16:43:33.098Z,63.50
2022-08-27T16:46:01.769Z,63.60
2022-08-27T16:48:47.607Z,63.80
2022-08-27T16:51:27.476Z,64.00
2022-08-27T16:53:54.477Z,64.10
2022-08-27T16:56:21.573Z,64.20
2022-08-27T16:58:56.486Z,64.20
2022-08-27T17:01:24.005Z,64.30
2022-08-27T17:04:13.375Z,64.50
2022-08-27T17:06:51.412Z,64.70
2022-08-27T17:09:19.367Z,64.70
2022-08-27T17:11:57.284Z,64.60
2022-08-27T17:14:24.937Z,64.90
2022-08-27T17:16:54.078Z,65.00
2022-08-27T17:19:24.288Z,65.10
2022-08-27T17:21:54.071Z,65.30
2022-08-27T17:24:20.996Z,65.60
2022-08-27T17:26:48.213Z,65.50
2022-08-27T17:29:15.165Z,65.70
2022-08-27T17:31:43.727Z,65.80
2022-08-27T17:34:21.306Z,65.80
2022-08-27T17:36:48.441Z,66.00
2022-08-27T17:39:15.890Z,66.00
2022-08-27T17:41:46.431Z,66.20
2022-08-27T17:44:35.229Z,66.40
2022-08-27T17:47:07.145Z,66.70
2022-08-27T17:49:34.952Z,66.70
2022-08-27T17:52:09.617Z,66.80
2022-08-27T17:54:46.675Z,67.10
2022-08-27T17:57:23.987Z,67.30
2022-08-27T17:59:53.308Z,67.70
2022-08-27T18:02:32.446Z,67.70
2022-08-27T18:04:59.988Z,67.90
2022-08-27T18:07:27.819Z,67.90
2022-08-27T18:09:55.836Z,68.30
2022-08-27T18:12:26.039Z,68.60
2022-08-27T18:15:08.170Z,68.60
2022-08-27T18:17:36.756Z,68.90
2022-08-27T18:20:08.176Z,68.80
2022-08-27T18:22:40.976Z,69.00
2022-08-27T18:25:26.680Z,69.10
2022-08-27T18:28:02.751Z,69.20
2022-08-27T18:30:31.461Z,69.40
2022-08-27T18:32:59.933Z,69.40
2022-08-27T18:35:30.924Z,69.50
2022-08-27T18:37:58.682Z,69.70
2022-08-27T18:40:29.914Z,69.70
2022-08-27T18:42:58.288Z,69.90
2022-08-27T18:45:28.711Z,69.70
2022-08-27T18:47:58.349Z,69.70
2022-08-27T18:50:26.060Z,69.90
2022-08-27T18:52:55.637Z,69.80
2022-08-27T18:55:28.044Z,69.90
2022-08-27T18:57:55.339Z,70.00
2022-08-27T19:00:22.846Z,70.00
2022-08-27T19:02:52.698Z,70.00
2022-08-27T19:05:28.058Z,70.10
2022-08-27T19:07:58.255Z,70.20
2022-08-27T19:10:26.561Z,70.00
2022-08-27T19:12:54.819Z,70.20
2022-08-27T19:15:22.225Z,70.10
2022-08-27T19:17:53.918Z,70.20
2022-08-27T19:20:21.477Z,70.40
2022-08-27T19:22:49.130Z,70.40
2022-08-27T19:25:17.038Z,70.40
2022-08-27T19:27:45.144Z,70.40
2022-08-27T19:30:13.956Z,70.40
2022-08-27T19:32:41.036Z,70.30
2022-08-27T19:35:08.965Z,70.80
2022-08-27T19:37:43.133Z,70.20
2022-08-27T19:40:11.695Z,70.20
2022-08-27T19:42:39.428Z,70.20
2022-08-27T19:45:07.941Z,70.10
2022-08-27T19:47:36.552Z,70.20
2022-08-27T19:50:04.077Z,70.40
2022-08-27T19:52:31.106Z,70.30
2022-08-27T19:55:13.013Z,70.40
2022-08-27T19:57:42.633Z,70.50
2022-08-27T20:00:12.579Z,70.30
2022-08-27T20:02:40.403Z,70.50
2022-08-27T20:05:17.856Z,70.50
2022-08-27T20:07:47.427Z,70.60
2022-08-27T20:10:16.291Z,70.70
2022-08-27T20:12:44.125Z,70.90
2022-08-27T20:15:12.019Z,71.00
2022-08-27T20:17:40.100Z,71.10
2022-08-27T20:20:09.037Z,71.20
2022-08-27T20:22:36.463Z,71.40
2022-08-27T20:25:03.629Z,71.50
2022-08-27T20:27:30.773Z,71.70
2022-08-27T20:29:58.215Z,71.80
2022-08-27T20:32:29.867Z,72.00
2022-08-27T20:34:59.046Z,72.00
2022-08-27T20:37:26.110Z,72.20
2022-08-27T20:39:53.682Z,72.30
2022-08-27T20:42:20.838Z,72.30
2022-08-27T20:44:49.147Z,72.50
2022-08-27T20:47:17.728Z,72.60
2022-08-27T20:49:44.870Z,72.80
2022-08-27T20:52:13.170Z,72.90
2022-08-27T20:54:40.759Z,72.90
2022-08-27T20:57:08.874Z,73.20
2022-08-27T20:59:54.957Z,73.10
2022-08-27T21:02:26.084Z,73.20
2022-08-27T21:04:54.161Z,73.30
2022-08-27T21:07:22.408Z,73.20
2022-08-27T21:09:55.908Z,73.40
2022-08-27T21:12:29.679Z,73.50
2022-08-27T21:14:57.978Z,73.70
2022-08-27T21:17:27.665Z,73.80
2022-08-27T21:19:55.261Z,73.70
2022-08-27T21:22:24.232Z,73.70
2022-08-27T21:24:52.238Z,73.90
2022-08-27T21:27:21.320Z,73.90
2022-08-27T21:29:49.193Z,73.80
2022-08-27T21:32:16.641Z,73.90
2022-08-27T21:34:43.886Z,73.90
2022-08-27T21:37:13.565Z,74.00
2022-08-27T21:39:42.295Z,74.20
2022-08-27T21:42:10.900Z,74.20
2022-08-27T21:44:38.124Z,74.20
2022-08-27T21:47:05.957Z,74.20
2022-08-27T21:49:33.726Z,74.20
2022-08-27T21:52:04.073Z,74.10
2022-08-27T21:54:34.195Z,74.30
2022-08-27T21:57:02.999Z,74.30
2022-08-27T21:59:31.568Z,74.30
2022-08-27T22:02:00.972Z,74.30
2022-08-27T22:04:30.909Z,74.30
2022-08-27T22:06:59.674Z,74.40
2022-08-27T22:09:28.105Z,74.50
2022-08-27T22:11:55.476Z,74.50
2022-08-27T22:14:22.440Z,74.50
2022-08-27T22:16:49.862Z,74.60
2022-08-27T22:19:17.484Z,74.70
2022-08-27T22:21:44.926Z,74.70
2022-08-27T22:24:12.524Z,74.80
2022-08-27T22:26:39.343Z,74.80
2022-08-27T22:29:07.397Z,74.90
2022-08-27T22:31:34.675Z,75.00
2022-08-27T22:34:02.319Z,75.20
2022-08-27T22:36:29.403Z,75.40
2022-08-27T22:38:59.810Z,75.50
2022-08-27T22:41:32.612Z,75.50
2022-08-27T22:44:00.325Z,75.40
2022-08-27T22:46:28.011Z,75.60
2022-08-27T22:48:55.031Z,75.80
2022-08-27T22:51:22.315Z,75.90
2022-08-27T22:53:49.240Z,76.00
2022-08-27T22:56:16.357Z,76.10
2022-08-27T22:58:45.769Z,76.20
2022-08-27T23:01:19.522Z,76.30
2022-08-27T23:03:46.681Z,76.30
2022-08-27T23:06:13.777Z,76.30
2022-08-27T23:08:40.815Z,76.40
2022-08-27T23:11:07.804Z,76.50
2022-08-27T23:13:35.128Z,76.70
2022-08-27T23:16:03.331Z,76.80
2022-08-27T23:18:30.431Z,76.90
2022-08-27T23:20:57.817Z,76.90
2022-08-27T23:23:27.609Z,77.10
2022-08-27T23:26:17.925Z,77.10
2022-08-27T23:28:45.528Z,77.20
2022-08-27T23:31:12.943Z,77.40
2022-08-27T23:33:40.875Z,77.40
2022-08-27T23:36:08.322Z,77.50
2022-08-27T23:38:35.341Z,77.40
2022-08-27T23:41:02.414Z,77.50
2022-08-27T23:43:30.281Z,77.60
2022-08-27T23:45:57.368Z,77.70
2022-08-27T23:48:24.623Z,77.90
2022-08-27T23:50:52.037Z,78.00
2022-08-27T23:53:18.987Z,78.00
2022-08-27T23:55:46.323Z,77.90
2022-08-27T23:58:13.460Z,78.70
